sensor_id;sensor_type;location;lat;lon;timestamp;temperature;humidity
39621;DHT22;25309;48.686;9.170;2023-04-16T02:42:51;7.90;99.90
39621;DHT22;25309;48.686;9.170;2023-04-16T02:45:18;7.80;99.90
39621;DHT22;25309;48.686;9.170;2023-04-16T02:47:45;7.80;99.90
39621;DHT22;25309;48.686;9.170;2023-04-16T02:50:13;7.80;99.90
39621;DHT22;25309;48.686;9.170;2023-04-16T02:52:40;7.80;99.90
39621;DHT22;25309;48.686;9.170;2023-04-16T02:55:08;7.80;99.90
39621;DHT22;25309;48.686;9.170;2023-04-16T02:57:36;7.80;99.90
39621;DHT22;25309;48.686;9.170;2023-04-16T03:00:05;7.80;99.90
39621;DHT22;25309;48.686;9.170;2023-04-16T03:02:32;7.80;99.90
39621;DHT22;25309;48.686;9.170;2023-04-16T03:05:00;7.80;99.90
39621;DHT22;25309;48.686;9.170;2023-04-16T03:07:27;7.80;99.90
39621;DHT22;25309;48.686;9.170;2023-04-16T03:09:53;7.80;99.90
39621;DHT22;25309;48.686;9.170;2023-04-16T03:12:20;7.80;99.90
39621;DHT22;25309;48.686;9.170;2023-04-16T03:14:49;7.80;99.90
39621;DHT22;25309;48.686;9.170;2023-04-16T03:17:17;7.80;99.90
39621;DHT22;25309;48.686;9.170;2023-04-16T03:19:44;7.80;99.90
39621;DHT22;25309;48.686;9.170;2023-04-16T03:22:12;7.80;99.90
39621;DHT22;25309;48.686;9.170;2023-04-16T03:24:38;7.80;99.90
39621;DHT22;25309;48.686;9.170;2023-04-16T03:27:06;7.90;99.90
39621;DHT22;25309;48.686;9.170;2023-04-16T03:29:35;7.90;99.90
39621;DHT22;25309;48.686;9.170;2023-04-16T03:32:02;7.90;99.90
39621;DHT22;25309;48.686;9.170;2023-04-16T03:34:31;7.80;99.90
39621;DHT22;25309;48.686;9.170;2023-04-16T03:36:58;7.90;99.90
39621;DHT22;25309;48.686;9.170;2023-04-16T03:39:25;7.90;99.90
39621;DHT22;25309;48.686;9.170;2023-04-16T03:41:52;7.90;99.90
39621;DHT22;25309;48.686;9.170;2023-04-16T03:44:19;7.80;99.90
39621;DHT22;25309;48.686;9.170;2023-04-16T03:46:46;7.90;99.90
39621;DHT22;25309;48.686;9.170;2023-04-16T03:49:13;7.90;99.90
39621;DHT22;25309;48.686;9.170;2023-04-16T03:51:42;7.90;99.90
39621;DHT22;25309;48.686;9.170;2023-04-16T03:54:09;7.90;99.90
39621;DHT22;25309;48.686;9.170;2023-04-16T03:56:39;7.90;99.90
39621;DHT22;25309;48.686;9.170;2023-04-16T03:59:06;7.90;99.90
39621;DHT22;25309;48.686;9.170;2023-04-16T04:01:33;7.90;99.90
39621;DHT22;25309;48.686;9.170;2023-04-16T04:04:02;7.80;99.90
39621;DHT22;25309;48.686;9.170;2023-04-16T04:06:30;7.80;99.90
39621;DHT22;25309;48.686;9.170;2023-04-16T04:08:58;7.80;99.90
39621;DHT22;25309;48.686;9.170;2023-04-16T04:11:26;7.80;99.90
39621;DHT22;25309;48.686;9.170;2023-04-16T04:13:53;7.80;99.90
39621;DHT22;25309;48.686;9.170;2023-04-16T04:16:20;7.70;99.90
39621;DHT22;25309;48.686;9.170;2023-04-16T04:18:47;7.70;99.90
39621;DHT22;25309;48.686;9.170;2023-04-16T04:21:14;7.70;99.90
39621;DHT22;25309;48.686;9.170;2023-04-16T04:23:41;7.70;99.90
39621;DHT22;25309;48.686;9.170;2023-04-16T04:26:11;7.70;99.90
39621;DHT22;25309;48.686;9.170;2023-04-16T04:28:39;7.70;99.90
39621;DHT22;25309;48.686;9.170;2023-04-16T04:31:06;7.70;99.90
39621;DHT22;25309;48.686;9.170;2023-04-16T04:33:33;7.80;99.90
39621;DHT22;25309;48.686;9.170;2023-04-16T04:36:00;7.80;99.90
39621;DHT22;25309;48.686;9.170;2023-04-16T04:38:27;7.70;99.90
39621;DHT22;25309;48.686;9.170;2023-04-16T04:40:57;7.70;99.90
39621;DHT22;25309;48.686;9.170;2023-04-16T04:43:28;7.70;99.90
39621;DHT22;25309;48.686;9.170;2023-04-16T04:45:55;7.70;99.90
39621;DHT22;25309;48.686;9.170;2023-04-16T04:48:25;7.70;99.90
39621;DHT22;25309;48.686;9.170;2023-04-16T04:50:54;7.70;99.90
39621;DHT22;25309;48.686;9.170;2023-04-16T04:53:21;7.70;99.90
39621;DHT22;25309;48.686;9.170;2023-04-16T04:55:48;7.70;99.90
39621;DHT22;25309;48.686;9.170;2023-04-16T04:58:20;7.70;99.90
39621;DHT22;25309;48.686;9.170;2023-04-16T05:00:48;7.70;99.90
39621;DHT22;25309;48.686;9.170;2023-04-16T05:03:19;7.70;99.90
39621;DHT22;25309;48.686;9.170;2023-04-16T05:05:46;7.80;99.90
39621;DHT22;25309;48.686;9.170;2023-04-16T05:08:13;7.80;99.90
39621;DHT22;25309;48.686;9.170;2023-04-16T05:10:40;7.80;99.90
39621;DHT22;25309;48.686;9.170;2023-04-16T05:13:07;7.80;99.90
39621;DHT22;25309;48.686;9.170;2023-04-16T05:15:33;7.80;99.90
39621;DHT22;25309;48.686;9.170;2023-04-16T05:18:02;7.80;99.90
39621;DHT22;25309;48.686;9.170;2023-04-16T05:20:29;7.80;99.90
39621;DHT22;25309;48.686;9.170;2023-04-16T05:22:56;7.70;99.90
39621;DHT22;25309;48.686;9.170;2023-04-16T05:25:23;7.70;99.90
39621;DHT22;25309;48.686;9.170;2023-04-16T05:27:50;7.70;99.90
39621;DHT22;25309;48.686;9.170;2023-04-16T05:30:17;7.70;99.90
39621;DHT22;25309;48.686;9.170;2023-04-16T05:32:44;7.70;99.90
39621;DHT22;25309;48.686;9.170;2023-04-16T05:35:13;7.70;99.90
39621;DHT22;25309;48.686;9.170;2023-04-16T05:37:43;7.80;99.90
39621;DHT22;25309;48.686;9.170;2023-04-16T05:40:12;7.80;99.90
39621;DHT22;25309;48.686;9.170;2023-04-16T05:42:39;7.80;99.90
39621;DHT22;25309;48.686;9.170;2023-04-16T05:45:07;7.80;99.90
39621;DHT22;25309;48.686;9.170;2023-04-16T05:47:34;7.70;99.90
39621;DHT22;25309;48.686;9.170;2023-04-16T05:50:01;7.70;99.90
39621;DHT22;25309;48.686;9.170;2023-04-16T05:52:29;7.70;99.90
39621;DHT22;25309;48.686;9.170;2023-04-16T05:54:56;7.70;99.90
39621;DHT22;25309;48.686;9.170;2023-04-16T05:57:26;7.70;99.90
39621;DHT22;25309;48.686;9.170;2023-04-16T05:59:53;7.70;99.90
39621;DHT22;25309;48.686;9.170;2023-04-16T06:02:20;7.70;99.90
39621;DHT22;25309;48.686;9.170;2023-04-16T06:04:47;7.70;99.90
39621;DHT22;25309;48.686;9.170;2023-04-16T06:07:15;7.70;99.90
39621;DHT22;25309;48.686;9.170;2023-04-16T06:09:43;7.70;99.90
39621;DHT22;25309;48.686;9.170;2023-04-16T06:12:10;7.70;99.90
39621;DHT22;25309;48.686;9.170;2023-04-16T06:14:37;7.60;99.90
39621;DHT22;25309;48.686;9.170;2023-04-16T06:17:04;7.60;99.90
39621;DHT22;25309;48.686;9.170;2023-04-16T06:19:31;7.60;99.90
39621;DHT22;25309;48.686;9.170;2023-04-16T06:21:58;7.60;99.90
39621;DHT22;25309;48.686;9.170;2023-04-16T06:24:25;7.60;99.90
39621;DHT22;25309;48.686;9.170;2023-04-16T06:26:53;7.60;99.90
39621;DHT22;25309;48.686;9.170;2023-04-16T06:29:20;7.60;99.90
39621;DHT22;25309;48.686;9.170;2023-04-16T06:31:59;7.50;99.90
39621;DHT22;25309;48.686;9.170;2023-04-16T06:34:27;7.50;99.90
39621;DHT22;25309;48.686;9.170;2023-04-16T06:36:54;7.60;99.90
39621;DHT22;25309;48.686;9.170;2023-04-16T06:39:21;7.50;99.90
39621;DHT22;25309;48.686;9.170;2023-04-16T06:41:48;7.60;99.90
39621;DHT22;25309;48.686;9.170;2023-04-16T06:44:16;7.60;99.90
39621;DHT22;25309;48.686;9.170;2023-04-16T06:46:43;7.70;99.90
39621;DHT22;25309;48.686;9.170;2023-04-16T06:49:10;7.70;99.90
39621;DHT22;25309;48.686;9.170;2023-04-16T06:51:37;7.70;99.90
39621;DHT22;25309;48.686;9.170;2023-04-16T06:54:04;7.70;99.90
39621;DHT22;25309;48.686;9.170;2023-04-16T06:56:31;7.70;99.90
39621;DHT22;25309;48.686;9.170;2023-04-16T06:58:58;7.70;99.90
39621;DHT22;25309;48.686;9.170;2023-04-16T07:01:28;7.70;99.90
39621;DHT22;25309;48.686;9.170;2023-04-16T07:03:57;7.70;99.90
39621;DHT22;25309;48.686;9.170;2023-04-16T07:06:24;7.80;99.90
39621;DHT22;25309;48.686;9.170;2023-04-16T07:08:52;7.80;99.90
39621;DHT22;25309;48.686;9.170;2023-04-16T07:11:19;7.80;99.90
39621;DHT22;25309;48.686;9.170;2023-04-16T07:13:46;7.90;99.90
39621;DHT22;25309;48.686;9.170;2023-04-16T07:16:13;7.90;99.90
39621;DHT22;25309;48.686;9.170;2023-04-16T07:18:42;7.90;99.90
39621;DHT22;25309;48.686;9.170;2023-04-16T07:21:09;7.90;99.90
39621;DHT22;25309;48.686;9.170;2023-04-16T07:23:36;7.90;99.90
39621;DHT22;25309;48.686;9.170;2023-04-16T07:26:03;7.90;99.90
39621;DHT22;25309;48.686;9.170;2023-04-16T07:28:30;7.90;99.90
39621;DHT22;25309;48.686;9.170;2023-04-16T07:30:57;7.90;99.90
39621;DHT22;25309;48.686;9.170;2023-04-16T07:33:23;7.80;99.90
39621;DHT22;25309;48.686;9.170;2023-04-16T07:35:52;7.80;99.90
39621;DHT22;25309;48.686;9.170;2023-04-16T07:38:19;7.90;99.90
39621;DHT22;25309;48.686;9.170;2023-04-16T07:40:46;7.90;99.90
39621;DHT22;25309;48.686;9.170;2023-04-16T07:43:13;7.90;99.90
39621;DHT22;25309;48.686;9.170;2023-04-16T07:45:41;7.90;99.90
39621;DHT22;25309;48.686;9.170;2023-04-16T07:48:08;8.00;99.90
39621;DHT22;25309;48.686;9.170;2023-04-16T07:50:36;8.00;99.90
39621;DHT22;25309;48.686;9.170;2023-04-16T07:53:04;8.00;99.90
39621;DHT22;25309;48.686;9.170;2023-04-16T07:55:33;8.00;99.90
39621;DHT22;25309;48.686;9.170;2023-04-16T07:58:00;8.10;99.90
39621;DHT22;25309;48.686;9.170;2023-04-16T08:00:28;8.10;99.90
39621;DHT22;25309;48.686;9.170;2023-04-16T08:02:55;8.10;99.90
39621;DHT22;25309;48.686;9.170;2023-04-16T08:05:22;8.10;99.90
39621;DHT22;25309;48.686;9.170;2023-04-16T08:07:49;8.10;99.90
39621;DHT22;25309;48.686;9.170;2023-04-16T08:10:18;8.20;99.90
39621;DHT22;25309;48.686;9.170;2023-04-16T08:12:45;8.20;99.90
39621;DHT22;25309;48.686;9.170;2023-04-16T08:15:11;8.20;99.90
39621;DHT22;25309;48.686;9.170;2023-04-16T08:17:38;8.10;99.90
39621;DHT22;25309;48.686;9.170;2023-04-16T08:20:06;8.20;99.90
39621;DHT22;25309;48.686;9.170;2023-04-16T08:22:33;8.20;99.90
39621;DHT22;25309;48.686;9.170;2023-04-16T08:25:02;8.20;99.90
39621;DHT22;25309;48.686;9.170;2023-04-16T08:27:30;8.20;99.90
39621;DHT22;25309;48.686;9.170;2023-04-16T08:29:57;8.20;99.90
39621;DHT22;25309;48.686;9.170;2023-04-16T08:32:25;8.20;99.90
39621;DHT22;25309;48.686;9.170;2023-04-16T08:34:52;8.10;99.90
39621;DHT22;25309;48.686;9.170;2023-04-16T08:37:19;8.10;99.90
39621;DHT22;25309;48.686;9.170;2023-04-16T08:39:46;8.20;99.90
39621;DHT22;25309;48.686;9.170;2023-04-16T08:42:20;8.20;99.90
39621;DHT22;25309;48.686;9.170;2023-04-16T08:44:52;8.20;99.90
39621;DHT22;25309;48.686;9.170;2023-04-16T08:47:23;8.30;99.90
39621;DHT22;25309;48.686;9.170;2023-04-16T08:49:53;8.30;99.90
39621;DHT22;25309;48.686;9.170;2023-04-16T08:52:25;8.30;99.90
39621;DHT22;25309;48.686;9.170;2023-04-16T08:55:03;8.20;99.90
39621;DHT22;25309;48.686;9.170;2023-04-16T08:57:38;8.20;99.90
39621;DHT22;25309;48.686;9.170;2023-04-16T09:00:10;8.20;99.90
39621;DHT22;25309;48.686;9.170;2023-04-16T09:02:37;8.20;99.90
39621;DHT22;25309;48.686;9.170;2023-04-16T09:05:06;8.20;99.90
39621;DHT22;25309;48.686;9.170;2023-04-16T09:07:34;8.20;99.90
39621;DHT22;25309;48.686;9.170;2023-04-16T09:10:02;8.20;99.90
39621;DHT22;25309;48.686;9.170;2023-04-16T09:12:29;8.30;99.90
39621;DHT22;25309;48.686;9.170;2023-04-16T09:14:56;8.30;99.90
39621;DHT22;25309;48.686;9.170;2023-04-16T09:17:28;8.40;99.90
39621;DHT22;25309;48.686;9.170;2023-04-16T09:19:55;8.40;99.90
39621;DHT22;25309;48.686;9.170;2023-04-16T09:22:22;8.40;99.90
39621;DHT22;25309;48.686;9.170;2023-04-16T09:24:49;8.40;99.90
39621;DHT22;25309;48.686;9.170;2023-04-16T09:27:16;8.50;99.90
39621;DHT22;25309;48.686;9.170;2023-04-16T09:29:43;8.60;99.90
39621;DHT22;25309;48.686;9.170;2023-04-16T09:32:10;8.60;99.90
39621;DHT22;25309;48.686;9.170;2023-04-16T09:37:31;8.60;99.90
39621;DHT22;25309;48.686;9.170;2023-04-16T09:39:59;8.70;99.90
39621;DHT22;25309;48.686;9.170;2023-04-16T09:42:28;8.70;99.90
39621;DHT22;25309;48.686;9.170;2023-04-16T09:44:55;8.80;99.90
39621;DHT22;25309;48.686;9.170;2023-04-16T09:47:38;8.80;99.90
39621;DHT22;25309;48.686;9.170;2023-04-16T09:50:06;8.80;99.90
39621;DHT22;25309;48.686;9.170;2023-04-16T09:52:36;8.80;99.90
39621;DHT22;25309;48.686;9.170;2023-04-16T09:55:06;8.90;99.90
39621;DHT22;25309;48.686;9.170;2023-04-16T09:57:36;8.90;99.90
39621;DHT22;25309;48.686;9.170;2023-04-16T10:00:05;8.90;99.90
39621;DHT22;25309;48.686;9.170;2023-04-16T10:02:34;8.90;99.90
39621;DHT22;25309;48.686;9.170;2023-04-16T10:05:02;8.90;99.90
39621;DHT22;25309;48.686;9.170;2023-04-16T10:07:32;8.90;99.90
39621;DHT22;25309;48.686;9.170;2023-04-16T10:10:02;8.90;99.90
39621;DHT22;25309;48.686;9.170;2023-04-16T10:12:29;8.90;99.90
39621;DHT22;25309;48.686;9.170;2023-04-16T10:14:58;8.90;99.90
39621;DHT22;25309;48.686;9.170;2023-04-16T10:17:25;8.90;99.90
39621;DHT22;25309;48.686;9.170;2023-04-16T10:19:56;8.90;99.90
39621;DHT22;25309;48.686;9.170;2023-04-16T10:22:25;8.90;99.90
39621;DHT22;25309;48.686;9.170;2023-04-16T10:24:52;8.90;99.90
39621;DHT22;25309;48.686;9.170;2023-04-16T10:27:21;8.90;99.90
39621;DHT22;25309;48.686;9.170;2023-04-16T10:29:49;8.90;99.90
39621;DHT22;25309;48.686;9.170;2023-04-16T10:32:16;8.80;99.90
39621;DHT22;25309;48.686;9.170;2023-04-16T10:34:46;8.90;99.90
39621;DHT22;25309;48.686;9.170;2023-04-16T10:37:14;8.90;99.90
39621;DHT22;25309;48.686;9.170;2023-04-16T10:39:43;8.90;99.90
39621;DHT22;25309;48.686;9.170;2023-04-16T10:42:11;8.90;99.90
39621;DHT22;25309;48.686;9.170;2023-04-16T10:44:40;8.90;99.90
39621;DHT22;25309;48.686;9.170;2023-04-16T10:47:12;9.00;99.90
39621;DHT22;25309;48.686;9.170;2023-04-16T10:49:40;9.00;99.90
39621;DHT22;25309;48.686;9.170;2023-04-16T10:52:09;9.00;99.90
39621;DHT22;25309;48.686;9.170;2023-04-16T10:54:38;9.00;99.90
39621;DHT22;25309;48.686;9.170;2023-04-16T10:57:07;9.00;99.90
39621;DHT22;25309;48.686;9.170;2023-04-16T10:59:36;9.00;99.90
39621;DHT22;25309;48.686;9.170;2023-04-16T11:02:08;9.00;99.90
39621;DHT22;25309;48.686;9.170;2023-04-16T11:04:38;9.00;99.90
39621;DHT22;25309;48.686;9.170;2023-04-16T11:07:13;9.00;99.90
39621;DHT22;25309;48.686;9.170;2023-04-16T11:09:51;9.10;99.90
39621;DHT22;25309;48.686;9.170;2023-04-16T11:12:20;9.10;99.90
39621;DHT22;25309;48.686;9.170;2023-04-16T11:14:48;9.10;99.90
39621;DHT22;25309;48.686;9.170;2023-04-16T11:17:17;9.00;99.90
39621;DHT22;25309;48.686;9.170;2023-04-16T11:19:44;9.00;99.90
39621;DHT22;25309;48.686;9.170;2023-04-16T11:22:12;9.10;99.90
39621;DHT22;25309;48.686;9.170;2023-04-16T11:24:40;9.10;99.90
39621;DHT22;25309;48.686;9.170;2023-04-16T11:27:07;9.10;99.90
39621;DHT22;25309;48.686;9.170;2023-04-16T11:29:34;9.10;99.90
39621;DHT22;25309;48.686;9.170;2023-04-16T11:32:01;9.10;99.90
39621;DHT22;25309;48.686;9.170;2023-04-16T11:34:30;9.10;99.90
39621;DHT22;25309;48.686;9.170;2023-04-16T11:36:57;9.20;99.90
39621;DHT22;25309;48.686;9.170;2023-04-16T11:39:24;9.20;99.90
39621;DHT22;25309;48.686;9.170;2023-04-16T11:41:51;9.20;99.90
39621;DHT22;25309;48.686;9.170;2023-04-16T11:44:20;9.20;99.90
39621;DHT22;25309;48.686;9.170;2023-04-16T11:46:47;9.20;99.90
39621;DHT22;25309;48.686;9.170;2023-04-16T11:49:15;9.20;99.90
39621;DHT22;25309;48.686;9.170;2023-04-16T11:51:45;9.40;99.90
39621;DHT22;25309;48.686;9.170;2023-04-16T11:54:19;9.50;99.90
39621;DHT22;25309;48.686;9.170;2023-04-16T11:56:47;9.50;99.90
39621;DHT22;25309;48.686;9.170;2023-04-16T11:59:15;9.50;99.90
39621;DHT22;25309;48.686;9.170;2023-04-16T12:01:45;9.60;99.90
39621;DHT22;25309;48.686;9.170;2023-04-16T12:04:13;9.70;99.90
39621;DHT22;25309;48.686;9.170;2023-04-16T12:07:10;9.70;99.90
39621;DHT22;25309;48.686;9.170;2023-04-16T12:09:39;9.70;99.90
39621;DHT22;25309;48.686;9.170;2023-04-16T12:12:24;9.70;99.90
39621;DHT22;25309;48.686;9.170;2023-04-16T12:14:52;9.60;99.90
39621;DHT22;25309;48.686;9.170;2023-04-16T12:17:20;9.60;99.90
39621;DHT22;25309;48.686;9.170;2023-04-16T12:19:49;9.60;99.90
39621;DHT22;25309;48.686;9.170;2023-04-16T12:22:26;9.60;99.90
39621;DHT22;25309;48.686;9.170;2023-04-16T12:24:56;9.60;99.90
39621;DHT22;25309;48.686;9.170;2023-04-16T12:27:24;9.60;99.90
39621;DHT22;25309;48.686;9.170;2023-04-16T12:30:04;9.60;99.90
39621;DHT22;25309;48.686;9.170;2023-04-16T12:32:32;9.60;99.90
39621;DHT22;25309;48.686;9.170;2023-04-16T12:34:59;9.60;99.90
39621;DHT22;25309;48.686;9.170;2023-04-16T12:37:28;9.70;99.90
39621;DHT22;25309;48.686;9.170;2023-04-16T12:39:55;9.80;99.90
39621;DHT22;25309;48.686;9.170;2023-04-16T12:42:22;9.90;99.90
39621;DHT22;25309;48.686;9.170;2023-04-16T12:44:49;9.90;99.90
39621;DHT22;25309;48.686;9.170;2023-04-16T12:47:15;10.00;99.90
39621;DHT22;25309;48.686;9.170;2023-04-16T12:49:42;10.00;99.90
39621;DHT22;25309;48.686;9.170;2023-04-16T12:52:10;10.00;99.90
39621;DHT22;25309;48.686;9.170;2023-04-16T12:54:38;10.00;99.90
39621;DHT22;25309;48.686;9.170;2023-04-16T12:57:05;10.00;99.90
39621;DHT22;25309;48.686;9.170;2023-04-16T12:59:32;10.00;99.90
39621;DHT22;25309;48.686;9.170;2023-04-16T13:02:00;9.90;99.90
39621;DHT22;25309;48.686;9.170;2023-04-16T13:04:27;10.00;99.90
39621;DHT22;25309;48.686;9.170;2023-04-16T13:06:55;10.00;99.90
39621;DHT22;25309;48.686;9.170;2023-04-16T13:09:22;10.00;99.90
39621;DHT22;25309;48.686;9.170;2023-04-16T13:11:50;10.00;99.90
39621;DHT22;25309;48.686;9.170;2023-04-16T13:14:18;10.00;99.90
39621;DHT22;25309;48.686;9.170;2023-04-16T13:16:46;9.90;99.90
39621;DHT22;25309;48.686;9.170;2023-04-16T13:19:12;9.90;99.90
39621;DHT22;25309;48.686;9.170;2023-04-16T13:21:41;9.90;99.90
39621;DHT22;25309;48.686;9.170;2023-04-16T13:24:08;9.80;99.90
39621;DHT22;25309;48.686;9.170;2023-04-16T13:26:35;9.80;99.90
39621;DHT22;25309;48.686;9.170;2023-04-16T13:29:03;9.80;99.90
39621;DHT22;25309;48.686;9.170;2023-04-16T13:31:30;9.80;99.90
39621;DHT22;25309;48.686;9.170;2023-04-16T13:33:57;9.80;99.90
39621;DHT22;25309;48.686;9.170;2023-04-16T13:36:24;9.80;99.90
39621;DHT22;25309;48.686;9.170;2023-04-16T13:38:53;9.80;99.90
39621;DHT22;25309;48.686;9.170;2023-04-16T13:41:20;9.80;99.90
39621;DHT22;25309;48.686;9.170;2023-04-16T13:43:47;9.70;99.90
39621;DHT22;25309;48.686;9.170;2023-04-16T13:46:15;9.80;99.90
39621;DHT22;25309;48.686;9.170;2023-04-16T13:48:42;9.80;99.90
39621;DHT22;25309;48.686;9.170;2023-04-16T13:51:09;9.80;99.90
39621;DHT22;25309;48.686;9.170;2023-04-16T13:53:36;9.70;99.90
39621;DHT22;25309;48.686;9.170;2023-04-16T13:56:04;9.80;99.90
39621;DHT22;25309;48.686;9.170;2023-04-16T13:58:31;9.80;99.90
39621;DHT22;25309;48.686;9.170;2023-04-16T14:00:58;9.70;99.90
39621;DHT22;25309;48.686;9.170;2023-04-16T14:03:26;9.70;99.90
39621;DHT22;25309;48.686;9.170;2023-04-16T14:05:53;9.60;99.90
39621;DHT22;25309;48.686;9.170;2023-04-16T14:08:20;9.60;99.90
39621;DHT22;25309;48.686;9.170;2023-04-16T14:10:48;9.60;99.90
39621;DHT22;25309;48.686;9.170;2023-04-16T14:13:15;9.60;99.90
39621;DHT22;25309;48.686;9.170;2023-04-16T14:15:42;9.60;99.90
39621;DHT22;25309;48.686;9.170;2023-04-16T14:18:09;9.60;99.90
39621;DHT22;25309;48.686;9.170;2023-04-16T14:20:37;9.60;99.90
39621;DHT22;25309;48.686;9.170;2023-04-16T14:23:05;9.50;99.90
39621;DHT22;25309;48.686;9.170;2023-04-16T14:25:33;9.50;99.90
39621;DHT22;25309;48.686;9.170;2023-04-16T14:28:00;9.60;99.90
39621;DHT22;25309;48.686;9.170;2023-04-16T14:30:27;9.60;99.90
39621;DHT22;25309;48.686;9.170;2023-04-16T14:32:53;9.60;99.90
39621;DHT22;25309;48.686;9.170;2023-04-16T14:35:21;9.50;99.90
39621;DHT22;25309;48.686;9.170;2023-04-16T14:37:50;9.50;99.90
39621;DHT22;25309;48.686;9.170;2023-04-16T14:40:17;9.60;99.90
39621;DHT22;25309;48.686;9.170;2023-04-16T14:42:44;9.60;99.90
39621;DHT22;25309;48.686;9.170;2023-04-16T14:45:11;9.60;99.90
39621;DHT22;25309;48.686;9.170;2023-04-16T14:47:38;9.60;99.90
39621;DHT22;25309;48.686;9.170;2023-04-16T14:50:11;9.60;99.90
39621;DHT22;25309;48.686;9.170;2023-04-16T14:52:38;9.60;99.90
39621;DHT22;25309;48.686;9.170;2023-04-16T14:55:07;9.60;99.90
39621;DHT22;25309;48.686;9.170;2023-04-16T14:57:34;9.60;99.90
39621;DHT22;25309;48.686;9.170;2023-04-16T15:00:01;9.50;99.90
39621;DHT22;25309;48.686;9.170;2023-04-16T15:02:33;9.60;99.90
39621;DHT22;25309;48.686;9.170;2023-04-16T15:05:01;9.60;99.90
39621;DHT22;25309;48.686;9.170;2023-04-16T15:07:28;9.60;99.90
39621;DHT22;25309;48.686;9.170;2023-04-16T15:09:55;9.60;99.90
39621;DHT22;25309;48.686;9.170;2023-04-16T15:12:23;9.60;99.90
39621;DHT22;25309;48.686;9.170;2023-04-16T15:14:50;9.50;99.90
39621;DHT22;25309;48.686;9.170;2023-04-16T15:17:17;9.50;99.90
39621;DHT22;25309;48.686;9.170;2023-04-16T15:19:44;9.40;99.90
39621;DHT22;25309;48.686;9.170;2023-04-16T15:22:11;9.40;99.90
39621;DHT22;25309;48.686;9.170;2023-04-16T15:24:40;9.40;99.90
39621;DHT22;25309;48.686;9.170;2023-04-16T15:27:07;9.40;99.90
39621;DHT22;25309;48.686;9.170;2023-04-16T15:29:38;9.40;99.90
39621;DHT22;25309;48.686;9.170;2023-04-16T15:32:06;9.40;99.90
39621;DHT22;25309;48.686;9.170;2023-04-16T15:34:33;9.40;99.90
39621;DHT22;25309;48.686;9.170;2023-04-16T15:37:00;9.40;99.90
39621;DHT22;25309;48.686;9.170;2023-04-16T15:39:27;9.50;99.90
39621;DHT22;25309;48.686;9.170;2023-04-16T15:41:54;9.50;99.90
39621;DHT22;25309;48.686;9.170;2023-04-16T15:44:26;9.40;99.90
39621;DHT22;25309;48.686;9.170;2023-04-16T15:46:55;9.40;99.90
39621;DHT22;25309;48.686;9.170;2023-04-16T15:49:22;9.40;99.90
39621;DHT22;25309;48.686;9.170;2023-04-16T15:51:50;9.40;99.90
39621;DHT22;25309;48.686;9.170;2023-04-16T15:54:17;9.40;99.90
39621;DHT22;25309;48.686;9.170;2023-04-16T15:56:44;9.40;99.90
39621;DHT22;25309;48.686;9.170;2023-04-16T15:59:12;9.40;99.90
39621;DHT22;25309;48.686;9.170;2023-04-16T16:01:39;9.40;99.90
39621;DHT22;25309;48.686;9.170;2023-04-16T16:04:07;9.40;99.90
39621;DHT22;25309;48.686;9.170;2023-04-16T16:06:35;9.50;99.90
39621;DHT22;25309;48.686;9.170;2023-04-16T16:09:03;9.50;99.90
39621;DHT22;25309;48.686;9.170;2023-04-16T16:11:30;9.50;99.90
39621;DHT22;25309;48.686;9.170;2023-04-16T16:13:58;9.50;99.90
39621;DHT22;25309;48.686;9.170;2023-04-16T16:16:27;9.60;99.90
39621;DHT22;25309;48.686;9.170;2023-04-16T16:18:54;9.50;99.90
39621;DHT22;25309;48.686;9.170;2023-04-16T16:21:22;9.50;99.90
39621;DHT22;25309;48.686;9.170;2023-04-16T16:23:49;9.50;99.90
39621;DHT22;25309;48.686;9.170;2023-04-16T16:26:17;9.40;99.90
39621;DHT22;25309;48.686;9.170;2023-04-16T16:28:43;9.40;99.90
39621;DHT22;25309;48.686;9.170;2023-04-16T16:31:11;9.40;99.90
39621;DHT22;25309;48.686;9.170;2023-04-16T16:33:38;9.40;99.90
39621;DHT22;25309;48.686;9.170;2023-04-16T16:36:08;9.40;99.90
39621;DHT22;25309;48.686;9.170;2023-04-16T16:38:37;9.40;99.90
39621;DHT22;25309;48.686;9.170;2023-04-16T16:41:06;9.40;99.90
39621;DHT22;25309;48.686;9.170;2023-04-16T16:43:33;9.40;99.90
39621;DHT22;25309;48.686;9.170;2023-04-16T16:46:00;9.40;99.90
39621;DHT22;25309;48.686;9.170;2023-04-16T16:48:28;9.40;99.90
39621;DHT22;25309;48.686;9.170;2023-04-16T16:50:55;9.40;99.90
39621;DHT22;25309;48.686;9.170;2023-04-16T16:53:21;9.30;99.90
39621;DHT22;25309;48.686;9.170;2023-04-16T16:55:50;9.30;99.90
39621;DHT22;25309;48.686;9.170;2023-04-16T16:58:17;9.30;99.90
39621;DHT22;25309;48.686;9.170;2023-04-16T17:00:44;9.30;99.90
39621;DHT22;25309;48.686;9.170;2023-04-16T17:03:11;9.20;99.90
39621;DHT22;25309;48.686;9.170;2023-04-16T17:05:38;9.30;99.90
39621;DHT22;25309;48.686;9.170;2023-04-16T17:08:06;9.30;99.90
39621;DHT22;25309;48.686;9.170;2023-04-16T17:10:34;9.40;99.90
39621;DHT22;25309;48.686;9.170;2023-04-16T17:13:02;9.40;99.90
39621;DHT22;25309;48.686;9.170;2023-04-16T17:15:29;9.40;99.90
39621;DHT22;25309;48.686;9.170;2023-04-16T17:17:56;9.40;99.90
39621;DHT22;25309;48.686;9.170;2023-04-16T17:20:23;9.40;99.90
39621;DHT22;25309;48.686;9.170;2023-04-16T17:22:50;9.30;99.90
39621;DHT22;25309;48.686;9.170;2023-04-16T17:25:17;9.40;99.90
39621;DHT22;25309;48.686;9.170;2023-04-16T17:27:44;9.30;99.90
39621;DHT22;25309;48.686;9.170;2023-04-16T17:30:13;9.30;99.90
39621;DHT22;25309;48.686;9.170;2023-04-16T17:32:40;9.30;99.90
39621;DHT22;25309;48.686;9.170;2023-04-16T17:35:08;9.30;99.90
39621;DHT22;25309;48.686;9.170;2023-04-16T17:37:35;9.30;99.90
39621;DHT22;25309;48.686;9.170;2023-04-16T17:40:03;9.30;99.90
39621;DHT22;25309;48.686;9.170;2023-04-16T17:42:33;9.30;99.90
39621;DHT22;25309;48.686;9.170;2023-04-16T17:45:00;9.30;99.90
39621;DHT22;25309;48.686;9.170;2023-04-16T17:47:29;9.30;99.90
39621;DHT22;25309;48.686;9.170;2023-04-16T17:49:56;9.20;99.90
39621;DHT22;25309;48.686;9.170;2023-04-16T17:52:23;9.20;99.90
39621;DHT22;25309;48.686;9.170;2023-04-16T17:54:50;9.20;99.90
39621;DHT22;25309;48.686;9.170;2023-04-16T17:57:19;9.20;99.90
39621;DHT22;25309;48.686;9.170;2023-04-16T17:59:45;9.20;99.90
39621;DHT22;25309;48.686;9.170;2023-04-16T18:02:12;9.20;99.90
39621;DHT22;25309;48.686;9.170;2023-04-16T18:04:41;9.30;99.90
39621;DHT22;25309;48.686;9.170;2023-04-16T18:07:08;9.30;99.90
39621;DHT22;25309;48.686;9.170;2023-04-16T18:09:35;9.30;99.90
39621;DHT22;25309;48.686;9.170;2023-04-16T18:12:02;9.30;99.90
39621;DHT22;25309;48.686;9.170;2023-04-16T18:14:29;9.30;99.90
39621;DHT22;25309;48.686;9.170;2023-04-16T18:16:56;9.30;99.90
39621;DHT22;25309;48.686;9.170;2023-04-16T18:19:23;9.30;99.90
39621;DHT22;25309;48.686;9.170;2023-04-16T18:21:53;9.30;99.90
39621;DHT22;25309;48.686;9.170;2023-04-16T18:24:21;9.30;99.90
39621;DHT22;25309;48.686;9.170;2023-04-16T18:26:47;9.30;99.90
39621;DHT22;25309;48.686;9.170;2023-04-16T18:29:14;9.30;99.90
39621;DHT22;25309;48.686;9.170;2023-04-16T18:31:43;9.40;99.90
39621;DHT22;25309;48.686;9.170;2023-04-16T18:34:10;9.30;99.90